Latest Coastal Weather Observations for Legendre Island

IDW60701

Issued at 8:14 am WST Sunday 25 September 2016 (issued every 10 minutes, with the page automatically refreshed every 10 minutes)

About coastal observations | Map of coastal stations | Coastal observations for WA | Marine services | Other Formats
Station Details ID: 004095 Name: LEGENDRE ISLAND Lat: -20.36 Lon: 116.84 Height: 29.0 m
Data from the previous 72 hours. | See also: Recent months at Legendre Island
Date/Time
WST
Temp
°C
Wind Pressure Rain since
9am
mm
Weather Cloud Vis
km
Sea
Height
m
Swell
Dir  Spd
kts
Gust
kts
hPa Trend Height
m
Period
s
Dir
25/08:00am 22.3 SW 11 13 1011.3 - - - - - - - - -
25/07:30am 21.8 SW 12 14 1010.8 - - - - - - - - -
25/07:00am 21.0 SW 12 15 1010.5 - - - - - - - - -
25/06:30am 20.5 SW 12 14 1010.3 - - - - - - - - -
25/06:00am 20.2 SW 13 16 1010.3 - - - - - - - - -
25/05:30am 20.4 SW 14 16 1010.0 - - - - - - - - -
25/05:00am 20.3 SW 14 16 1009.8 - - - - - - - - -
25/04:30am 20.9 SW 16 20 1009.5 - - - - - - - - -
25/04:00am 21.1 WSW 17 21 1009.5 - - - - - - - - -
25/03:30am 21.3 SW 19 22 1009.5 - - - - - - - - -
25/03:00am 21.4 SW 18 22 1009.5 - - - - - - - - -
25/02:30am 21.6 SW 18 22 1009.7 - - - - - - - - -
25/02:00am 21.7 WSW 19 22 1009.9 - - - - - - - - -
25/01:30am 21.8 WSW 18 21 1010.2 - - - - - - - - -
25/01:00am 21.9 SW 19 22 1010.5 - - - - - - - - -
25/12:30am 22.1 SW 17 21 1010.6 - - - - - - - - -
25/12:00am 21.9 SW 17 20 1011.0 - - - - - - - - -
 
Date/Time
WST
Temp
°C
Wind Pressure Rain since
9am
mm
Weather Cloud Vis
km
Sea
Height
m
Swell
Dir  Spd
kts
Gust
kts
hPa Trend Height
m
Period
s
Dir
24/11:30pm 21.9 SW 18 22 1011.1 - - - - - - - - -
24/11:00pm 21.9 SW 16 19 1011.4 - - - - - - - - -
24/10:30pm 22.0 SW 18 22 1011.3 - - - - - - - - -
24/10:00pm 22.1 SW 18 21 1011.6 - - - - - - - - -
24/09:30pm 22.4 SW 19 22 1011.5 - - - - - - - - -
24/09:00pm 22.5 SW 16 20 1011.5 - - - - - - - - -
24/08:30pm 22.8 SW 16 20 1011.4 - - - - - - - - -
24/08:00pm 23.0 WSW 14 16 1011.1 - - - - - - - - -
24/07:30pm 22.9 WSW 13 16 1010.9 - - - - - - - - -
24/07:00pm 23.0 WSW 15 18 1010.7 - - - - - - - - -
24/06:30pm 23.0 WSW 16 18 1010.4 - - - - - - - - -
24/06:00pm 23.6 WSW 15 18 1010.3 - - - - - - - - -
24/05:30pm 24.2 WSW 14 17 1010.3 - - - - - - - - -
24/05:00pm 24.9 WSW 13 16 1010.2 - - - - - - - - -
24/04:30pm 25.8 WSW 13 15 1010.2 - - - - - - - - -
24/04:00pm 25.9 WSW 13 15 1010.3 - - - - - - - - -
24/03:30pm 26.4 W 12 15 1010.3 - - - - - - - - -
24/03:00pm 27.1 W 11 13 1010.4 - - - - - - - - -
24/02:30pm 27.6 W 8 10 1010.6 - - - - - - - - -
24/02:00pm 26.6 NNW 6 8 1010.7 - - - - - - - - -
24/01:30pm 26.7 N 4 5 1011.1 - - - - - - - - -
24/01:00pm 26.4 NNE 4 5 1011.5 - - - - - - - - -
24/12:30pm 26.5 NE 5 6 1011.7 - - - - - - - - -
24/12:00pm 26.8 ENE 7 8 1012.0 - - - - - - - - -
24/11:30am 26.6 E 9 11 1012.4 - - - - - - - - -
24/11:00am 26.6 E 9 11 1012.9 - - - - - - - - -
24/10:30am 26.3 E 10 12 1013.2 - - - - - - - - -
24/10:00am 26.2 ESE 12 14 1013.4 - - - - - - - - -
24/09:30am 26.6 ESE 11 13 1013.5 - - - - - - - - -
24/09:00am 25.8 ESE 9 13 1013.5 - - - - - - - - -
24/08:30am 24.9 SE 10 13 1013.3 - - - - - - - - -
24/08:00am 24.4 SE 10 13 1013.1 - - - - - - - - -
24/07:30am 23.4 SSE 9 11 1012.6 - - - - - - - - -
24/07:00am 22.1 SSE 8 10 1012.2 - - - - - - - - -
24/06:30am 20.3 SSE 10 11 1011.9 - - - - - - - - -
24/06:00am 20.0 SSE 11 12 1011.5 - - - - - - - - -
24/05:30am 19.3 S 11 14 1010.9 - - - - - - - - -
24/05:00am 20.1 S 11 13 1010.8 - - - - - - - - -
24/04:30am 20.9 S 14 17 1010.5 - - - - - - - - -
24/04:00am 21.4 S 16 18 1010.0 - - - - - - - - -
24/03:30am 21.8 S 15 19 1010.1 - - - - - - - - -
24/03:00am 21.4 S 12 14 1010.3 - - - - - - - - -
24/02:30am 20.8 S 9 12 1010.3 - - - - - - - - -
24/02:00am 20.6 SSW 9 10 1010.4 - - - - - - - - -
24/01:30am 21.0 SSW 9 10 1010.5 - - - - - - - - -
24/01:00am 22.3 SSW 11 13 1010.5 - - - - - - - - -
24/12:30am 22.8 SW 14 17 1010.5 - - - - - - - - -
24/12:00am 22.8 SW 14 17 1010.5 - - - - - - - - -
 
Date/Time
WST
Temp
°C
Wind Pressure Rain since
9am
mm
Weather Cloud Vis
km
Sea
Height
m
Swell
Dir  Spd
kts
Gust
kts
hPa Trend Height
m
Period
s
Dir
23/11:30pm 22.8 SW 15 19 1010.7 - - - - - - - - -
23/11:00pm 22.8 SW 16 19 1010.9 - - - - - - - - -
23/10:30pm 22.8 WSW 18 20 1010.9 - - - - - - - - -
23/10:00pm 22.8 WSW 19 23 1010.9 - - - - - - - - -
23/09:30pm 22.7 WSW 20 24 1010.9 - - - - - - - - -
23/09:00pm 22.8 WSW 21 25 1010.7 - - - - - - - - -
23/08:30pm 23.0 WSW 20 24 1010.5 - - - - - - - - -
23/08:00pm 23.1 WSW 23 27 1010.2 - - - - - - - - -
23/07:30pm 23.4 WSW 21 25 1009.9 - - - - - - - - -
23/07:00pm 23.4 WSW 20 25 1009.6 - - - - - - - - -
23/06:30pm 23.4 W 17 22 1009.4 - - - - - - - - -
23/06:00pm 23.4 WSW 20 24 1009.1 - - - - - - - - -
23/05:30pm 24.0 W 20 25 1008.9 - - - - - - - - -
23/05:00pm 24.6 W 18 23 1008.9 - - - - - - - - -
23/04:30pm 25.1 W 19 24 1009.0 - - - - - - - - -
23/04:00pm 25.4 W 18 23 1009.0 - - - - - - - - -
23/03:30pm 25.1 W 20 23 1009.2 - - - - - - - - -
23/03:00pm 26.1 W 19 24 1009.3 - - - - - - - - -
23/02:30pm 25.7 W 19 22 1009.5 - - - - - - - - -
23/02:00pm 25.8 W 18 21 1009.6 - - - - - - - - -
23/01:30pm 26.1 W 18 21 1009.8 - - - - - - - - -
23/01:00pm 26.8 W 17 21 1010.4 - - - - - - - - -
23/12:30pm 26.9 WSW 15 18 1010.6 - - - - - - - - -
23/12:00pm 26.2 WSW 15 18 1011.1 - - - - - - - - -
23/11:30am 26.4 WSW 15 18 1011.6 - - - - - - - - -
23/11:00am 26.3 SW 15 18 1011.9 - - - - - - - - -
23/10:30am 25.8 SW 16 20 1012.1 - - - - - - - - -
23/10:00am 24.2 SW 17 20 1012.5 - - - - - - - - -
23/09:30am 24.0 SSW 15 18 1012.8 - - - - - - - - -
23/09:00am 23.1 SW 14 17 1013.1 - - - - - - - - -
23/08:30am 22.3 SSW 15 17 1013.2 - - - - - - - - -
23/08:00am 22.2 SSW 14 17 1013.2 - - - - - - - - -
23/07:30am 21.0 SSW 17 21 1012.8 - - - - - - - - -
23/07:00am 20.7 SSW 17 21 1012.6 - - - - - - - - -
23/06:30am 20.3 SSW 18 21 1012.3 - - - - - - - - -
23/06:00am 20.3 SSW 20 24 1011.8 - - - - - - - - -
23/05:30am 20.6 SSW 20 25 1011.4 - - - - - - - - -
23/05:00am 20.8 SW 22 27 1010.9 - - - - - - - - -
23/04:30am 21.1 SW 23 26 1010.8 - - - - - - - - -
23/04:00am 21.4 SW 19 22 1010.8 - - - - - - - - -
23/03:30am 21.8 SW 19 23 1010.8 - - - - - - - - -
23/03:00am 22.0 SW 20 25 1010.9 - - - - - - - - -
23/02:30am 21.9 SW 19 23 1011.1 - - - - - - - - -
23/02:00am 22.2 SW 18 22 1011.3 - - - - - - - - -
23/01:30am 22.2 SW 20 24 1011.1 - - - - - - - - -
23/01:00am 22.5 SW 20 24 1011.4 - - - - - - - - -
23/12:30am 22.3 WSW 19 22 1011.8 - - - - - - - - -
23/12:00am 22.7 SW 20 25 1011.8 - - - - - - - - -
 
Date/Time
WST
Temp
°C
Wind Pressure Rain since
9am
mm
Weather Cloud Vis
km
Sea
Height
m
Swell
Dir  Spd
kts
Gust
kts
hPa Trend Height
m
Period
s
Dir
22/11:30pm 22.8 SW 20 24 1012.0 - - - - - - - - -
22/11:00pm 22.8 WSW 17 22 1012.3 - - - - - - - - -
22/10:30pm 22.9 WSW 16 19 1012.5 - - - - - - - - -
22/10:00pm 22.9 SW 17 21 1012.4 - - - - - - - - -
22/09:30pm 22.9 WSW 19 23 1012.5 - - - - - - - - -
22/09:00pm 23.2 WSW 17 22 1012.7 - - - - - - - - -
22/08:30pm 23.0 WSW 17 20 1012.5 - - - - - - - - -
22/08:00pm 23.0 WSW 15 19 1012.5 - - - - - - - - -
22/07:30pm 23.4 WSW 16 19 1012.2 - - - - - - - - -
22/07:00pm 23.4 WSW 15 19 1012.0 - - - - - - - - -
22/06:30pm 23.4 WSW 17 21 1011.8 - - - - - - - - -
22/06:00pm 23.6 WSW 17 21 1011.7 - - - - - - - - -
22/05:30pm 24.0 WSW 18 21 1011.4 - - - - - - - - -
22/05:00pm 24.9 WSW 17 20 1011.4 - - - - - - - - -
22/04:30pm 25.7 WSW 18 21 1011.3 - - - - - - - - -
22/04:00pm 26.2 WSW 17 20 1011.1 - - - - - - - - -
22/03:30pm 27.1 WSW 17 20 1011.4 - - - - - - - - -
22/03:00pm 26.3 W 16 19 1011.4 - - - - - - - - -
22/02:30pm 26.9 W 14 17 1011.5 - - - - - - - - -
22/02:00pm 27.1 W 14 16 1011.6 - - - - - - - - -
22/01:30pm 27.1 W 14 16 1011.8 - - - - - - - - -
22/01:00pm 27.1 W 9 12 1012.3 - - - - - - - - -
22/12:30pm 27.1 SW 8 11 1012.4 - - - - - - - - -
22/12:00pm 27.1 SW 9 13 1012.9 - - - - - - - - -
22/11:30am 26.8 SW 9 11 1013.2 - - - - - - - - -
22/11:00am 25.9 SSW 8 10 1013.6 - - - - - - - - -
22/10:30am 25.3 SW 10 11 1014.0 - - - - - - - - -
22/10:00am 25.7 SSW 11 13 1014.1 - - - - - - - - -
22/09:30am 25.1 SSW 10 12 1014.1 - - - - - - - - -
22/09:00am 24.3 SSW 10 13 1014.2 - - - - - - - - -
22/08:30am 24.2 S 6 8 1014.3 - - - - - - - - -

Other Formats:

Comma delimited format used in spreadsheet applications
http://www.bom.gov.au/fwo/IDW60701/IDW60701.94307.axf

JavaScript Object Notation format (JSON) in row-major order
http://www.bom.gov.au/fwo/IDW60701/IDW60701.94307.json